createdAt,value
2022-12-08T00:00:46.979Z,38.20
2022-12-08T00:01:47.054Z,38.90
2022-12-08T00:02:47.136Z,38.40
2022-12-08T00:03:46.986Z,40.50
2022-12-08T00:04:46.961Z,36.60
2022-12-08T00:05:46.903Z,41.00
2022-12-08T00:06:46.914Z,38.70
2022-12-08T00:07:46.911Z,35.30
2022-12-08T00:08:46.887Z,39.80
2022-12-08T00:09:46.868Z,39.90
2022-12-08T00:10:49.755Z,36.00
2022-12-08T00:11:46.839Z,41.00
2022-12-08T00:12:46.826Z,41.60
2022-12-08T00:13:46.806Z,43.40
2022-12-08T00:14:46.821Z,40.80
2022-12-08T00:15:46.793Z,43.70
2022-12-08T00:16:46.837Z,43.90
2022-12-08T00:17:46.752Z,43.40
2022-12-08T00:18:46.746Z,43.30
2022-12-08T00:19:46.745Z,45.20
2022-12-08T00:20:46.737Z,43.60
2022-12-08T00:21:46.700Z,38.50
2022-12-08T00:22:47.834Z,43.30
2022-12-08T00:23:46.673Z,45.40
2022-12-08T00:24:46.694Z,39.50
2022-12-08T00:25:46.642Z,38.70
2022-12-08T00:26:46.671Z,34.40
2022-12-08T00:27:46.653Z,40.90
2022-12-08T00:28:46.622Z,37.10
2022-12-08T00:29:46.617Z,39.10
2022-12-08T00:30:46.635Z,40.70
2022-12-08T00:31:46.634Z,38.50
2022-12-08T00:32:46.561Z,39.60
2022-12-08T00:33:46.560Z,38.80
2022-12-08T00:34:46.548Z,39.20
2022-12-08T00:35:46.529Z,36.70
2022-12-08T00:36:46.511Z,38.90
2022-12-08T00:37:46.501Z,38.70
2022-12-08T00:38:46.479Z,38.10
2022-12-08T00:39:46.474Z,41.00
2022-12-08T00:40:46.458Z,43.80
2022-12-08T00:41:46.439Z,33.30
2022-12-08T00:42:46.421Z,36.80
2022-12-08T00:43:46.414Z,40.00
2022-12-08T00:44:46.436Z,39.80
2022-12-08T00:45:46.489Z,40.80
2022-12-08T00:46:46.369Z,36.40
2022-12-08T00:47:46.359Z,39.30
2022-12-08T00:48:46.350Z,41.00
2022-12-08T00:49:46.386Z,38.30
2022-12-08T00:50:46.319Z,40.00
2022-12-08T00:51:46.309Z,37.90
2022-12-08T00:52:46.295Z,39.50
2022-12-08T00:53:46.341Z,41.60
2022-12-08T00:54:46.285Z,38.80
2022-12-08T00:55:46.281Z,32.40
2022-12-08T00:56:46.280Z,44.30
2022-12-08T00:57:46.244Z,40.80
2022-12-08T00:58:46.211Z,40.50
2022-12-08T00:59:46.221Z,37.30
2022-12-08T01:00:46.299Z,40.40
2022-12-08T01:01:46.184Z,43.80
2022-12-08T01:02:46.156Z,39.20
2022-12-08T01:03:46.221Z,41.90
2022-12-08T01:04:46.132Z,38.50
2022-12-08T01:05:46.124Z,40.50
2022-12-08T01:06:46.176Z,41.70
2022-12-08T01:07:46.130Z,44.20
2022-12-08T01:08:46.303Z,43.80
2022-12-08T01:09:46.074Z,47.00
2022-12-08T01:10:46.068Z,43.60
2022-12-08T01:11:46.049Z,48.80
2022-12-08T01:12:46.025Z,45.00
2022-12-08T01:13:46.042Z,43.30
2022-12-08T01:14:46.006Z,47.80
2022-12-08T01:15:45.998Z,50.20
2022-12-08T01:16:46.029Z,49.30
2022-12-08T01:17:45.983Z,49.10
2022-12-08T01:18:45.969Z,46.30
2022-12-08T01:19:45.947Z,48.60
2022-12-08T01:20:45.953Z,51.50
2022-12-08T01:21:45.928Z,48.80
2022-12-08T01:22:45.905Z,52.30
2022-12-08T01:23:45.889Z,46.60
2022-12-08T01:24:45.893Z,50.80
2022-12-08T01:25:45.868Z,48.60
2022-12-08T01:26:45.853Z,51.40
2022-12-08T01:27:45.855Z,49.90
2022-12-08T01:28:45.837Z,49.50
2022-12-08T01:29:45.853Z,52.30
2022-12-08T01:30:45.897Z,54.10
2022-12-08T01:31:45.803Z,49.10
2022-12-08T01:32:45.910Z,55.90
2022-12-08T01:33:45.767Z,50.50
2022-12-08T01:34:45.764Z,56.90
2022-12-08T01:35:45.738Z,53.50
2022-12-08T01:36:45.719Z,56.50
2022-12-08T01:37:45.726Z,50.70
2022-12-08T01:38:45.849Z,58.30
2022-12-08T01:39:45.712Z,61.60
2022-12-08T01:40:45.667Z,62.60
2022-12-08T01:41:45.672Z,59.80
2022-12-08T01:42:45.659Z,58.50
2022-12-08T01:43:45.656Z,61.10
2022-12-08T01:44:45.637Z,61.30
2022-12-08T01:45:45.686Z,61.20
2022-12-08T01:46:45.668Z,62.70
2022-12-08T01:47:45.664Z,64.30
2022-12-08T01:48:45.562Z,59.80
2022-12-08T01:49:45.575Z,61.20
2022-12-08T01:50:45.584Z,65.10
2022-12-08T01:51:45.559Z,57.30
2022-12-08T01:52:45.534Z,59.10
2022-12-08T01:53:45.520Z,61.30
2022-12-08T01:54:45.502Z,63.40
2022-12-08T01:55:45.478Z,65.20
2022-12-08T01:56:45.475Z,54.80
2022-12-08T01:57:45.457Z,61.10
2022-12-08T01:58:45.436Z,58.60
2022-12-08T01:59:45.441Z,56.00
2022-12-08T02:00:45.524Z,61.90
2022-12-08T02:01:45.456Z,63.50
2022-12-08T02:02:45.426Z,61.90
2022-12-08T02:03:45.405Z,58.80
2022-12-08T02:04:45.379Z,57.60
2022-12-08T02:05:45.357Z,57.70
2022-12-08T02:06:45.345Z,56.60
2022-12-08T02:07:45.362Z,58.40
2022-12-08T02:08:45.326Z,53.70
2022-12-08T02:09:45.330Z,54.20
2022-12-08T02:10:45.283Z,53.30
2022-12-08T02:11:45.283Z,54.10
2022-12-08T02:12:45.256Z,49.60
2022-12-08T02:13:45.251Z,54.60
2022-12-08T02:14:45.249Z,56.30
2022-12-08T02:15:45.256Z,52.30
2022-12-08T02:16:45.211Z,49.60
2022-12-08T02:17:45.199Z,47.40
2022-12-08T02:18:50.471Z,51.30
2022-12-08T02:19:45.231Z,45.60
2022-12-08T02:20:45.162Z,48.50
2022-12-08T02:21:45.145Z,48.40
2022-12-08T02:22:45.125Z,48.70
2022-12-08T02:23:45.138Z,46.80
2022-12-08T02:24:45.101Z,45.40
2022-12-08T02:25:45.107Z,47.40
2022-12-08T02:26:45.070Z,44.20
2022-12-08T02:27:45.064Z,42.60
2022-12-08T02:28:45.064Z,45.40
2022-12-08T02:29:45.034Z,41.70
2022-12-08T02:30:45.113Z,45.80
2022-12-08T02:31:45.043Z,44.80
2022-12-08T02:32:45.010Z,41.60
2022-12-08T02:33:44.998Z,41.70
2022-12-08T02:34:44.996Z,37.70
2022-12-08T02:35:45.023Z,39.50
2022-12-08T02:36:44.995Z,44.70
2022-12-08T02:37:44.939Z,41.90
2022-12-08T02:38:45.001Z,40.60
2022-12-08T02:39:44.934Z,42.40
2022-12-08T02:40:52.124Z,42.70
2022-12-08T02:41:44.899Z,42.70
2022-12-08T02:42:44.874Z,36.80
2022-12-08T02:43:44.869Z,34.00
2022-12-08T02:44:44.870Z,35.00
2022-12-08T02:45:44.846Z,37.50
2022-12-08T02:46:44.895Z,39.80
2022-12-08T02:47:44.826Z,36.60
2022-12-08T02:48:44.826Z,36.40
2022-12-08T02:49:44.835Z,36.70
2022-12-08T02:50:44.775Z,35.10
2022-12-08T02:51:44.785Z,34.20
2022-12-08T02:52:44.752Z,39.80
2022-12-08T02:58:38.927Z,33.60
2022-12-08T02:59:39.925Z,31.90
2022-12-08T03:00:39.893Z,34.10
2022-12-08T03:01:39.928Z,31.80
2022-12-08T03:02:39.905Z,33.30
2022-12-08T03:03:39.871Z,34.80
2022-12-08T03:04:39.850Z,27.40
2022-12-08T03:05:39.834Z,27.50
2022-12-08T03:06:39.815Z,27.90
2022-12-08T03:07:39.864Z,25.00
2022-12-08T03:08:39.808Z,32.30
2022-12-08T03:09:39.795Z,25.40
2022-12-08T03:10:39.771Z,22.20
2022-12-08T03:11:39.748Z,22.80
2022-12-08T03:12:39.751Z,21.80
2022-12-08T03:13:39.738Z,23.40
2022-12-08T03:14:39.718Z,25.30
2022-12-08T03:15:39.773Z,24.70
2022-12-08T03:16:39.691Z,23.30
2022-12-08T03:17:39.679Z,21.80
2022-12-08T03:18:39.698Z,22.30
2022-12-08T03:19:39.643Z,18.80
2022-12-08T03:20:39.641Z,23.50
2022-12-08T03:21:39.624Z,20.10
2022-12-08T03:22:39.616Z,19.20
2022-12-08T03:23:39.624Z,19.70
2022-12-08T03:24:39.589Z,19.30
2022-12-08T03:26:50.635Z,18.30
2022-12-08T03:27:51.627Z,18.60
2022-12-08T03:28:51.626Z,19.30
2022-12-08T03:29:51.616Z,21.50
2022-12-08T03:30:51.597Z,19.20
2022-12-08T03:31:51.591Z,19.40
2022-12-08T03:32:51.586Z,18.50
2022-12-08T03:33:51.590Z,17.90
2022-12-08T03:34:51.542Z,18.90
2022-12-08T03:38:40.710Z,19.10
2022-12-08T03:39:41.701Z,19.50
2022-12-08T03:40:41.685Z,18.60
2022-12-08T03:41:41.674Z,19.30
2022-12-08T03:42:41.650Z,19.10
2022-12-08T03:43:41.666Z,19.00
2022-12-08T03:44:41.627Z,19.70
2022-12-08T03:45:41.635Z,18.70
2022-12-08T03:46:41.638Z,19.20
2022-12-08T03:47:41.598Z,18.00
2022-12-08T03:48:41.595Z,19.40
2022-12-08T03:49:41.566Z,18.80
2022-12-08T03:50:41.602Z,19.00
2022-12-08T03:51:41.543Z,18.10
2022-12-08T03:52:41.541Z,18.80
2022-12-08T03:53:41.536Z,18.30
2022-12-08T03:54:41.511Z,19.80
2022-12-08T03:55:41.512Z,18.30
2022-12-08T03:56:41.471Z,19.70
2022-12-08T03:57:41.468Z,19.00
2022-12-08T03:58:41.469Z,19.80
2022-12-08T03:59:41.453Z,19.70
2022-12-08T04:00:41.429Z,19.80
2022-12-08T04:01:41.510Z,19.70
2022-12-08T04:02:41.470Z,19.20
2022-12-08T04:03:41.410Z,19.70
2022-12-08T04:04:41.380Z,19.10
2022-12-08T04:05:41.361Z,20.20
2022-12-08T04:06:41.349Z,20.00
2022-12-08T04:07:41.402Z,20.40
2022-12-08T04:08:41.333Z,19.90
2022-12-08T04:09:41.321Z,19.60
2022-12-08T04:10:41.341Z,20.40
2022-12-08T04:11:41.287Z,19.80
2022-12-08T04:12:41.283Z,19.80
2022-12-08T04:13:41.278Z,20.50
2022-12-08T04:14:41.248Z,21.10
2022-12-08T04:15:41.301Z,21.60
2022-12-08T04:16:41.257Z,20.80
2022-12-08T04:17:41.220Z,21.70
2022-12-08T04:18:41.210Z,21.60
2022-12-08T04:19:41.189Z,22.20
2022-12-08T04:20:41.197Z,22.10
2022-12-08T04:21:41.167Z,21.70
2022-12-08T04:22:41.141Z,21.10
2022-12-08T04:23:41.158Z,21.00
2022-12-08T04:24:41.759Z,21.50
2022-12-08T04:25:41.110Z,23.40
2022-12-08T04:26:41.105Z,21.10
2022-12-08T04:27:41.091Z,25.20
2022-12-08T04:28:41.097Z,22.60
2022-12-08T04:29:41.074Z,20.80
2022-12-08T04:30:41.090Z,21.90
2022-12-08T04:31:41.085Z,21.30
2022-12-08T04:32:47.086Z,21.30
2022-12-08T04:33:41.052Z,20.30
2022-12-08T04:34:40.985Z,21.60
2022-12-08T04:38:40.181Z,21.80
2022-12-08T04:39:41.144Z,21.80
2022-12-08T04:40:41.156Z,21.40
2022-12-08T04:41:41.127Z,20.90
2022-12-08T04:42:41.112Z,21.40
2022-12-08T04:43:41.115Z,21.30
2022-12-08T04:44:41.110Z,22.10
2022-12-08T04:45:41.119Z,21.70
2022-12-08T04:46:43.676Z,22.60
2022-12-08T04:47:41.047Z,20.40
2022-12-08T04:48:41.042Z,19.90
2022-12-08T04:49:41.022Z,20.20
2022-12-08T04:50:41.016Z,21.30
2022-12-08T04:51:40.993Z,20.30
2022-12-08T04:52:40.993Z,21.60
2022-12-08T04:53:46.253Z,20.00
2022-12-08T04:54:40.964Z,20.00
2022-12-08T04:55:40.944Z,20.00
2022-12-08T04:56:40.939Z,20.50
2022-12-08T04:57:40.927Z,19.70
2022-12-08T04:58:40.920Z,23.00
2022-12-08T04:59:40.902Z,22.20
2022-12-08T05:00:40.881Z,21.40
2022-12-08T05:01:41.086Z,21.90
2022-12-08T05:02:40.927Z,22.70
2022-12-08T05:03:40.857Z,22.60
2022-12-08T05:04:40.839Z,24.20
2022-12-08T05:05:40.826Z,23.80
2022-12-08T05:06:40.805Z,25.50
2022-12-08T05:07:40.876Z,23.70
2022-12-08T05:08:40.812Z,26.50
2022-12-08T05:09:40.758Z,28.80
2022-12-08T05:10:40.751Z,33.80
2022-12-08T05:11:45.241Z,30.50
2022-12-08T05:12:40.732Z,31.60
2022-12-08T05:13:40.729Z,36.40
2022-12-08T05:14:40.700Z,39.20
2022-12-08T05:15:40.712Z,40.70
2022-12-08T05:16:40.709Z,43.80
2022-12-08T05:17:40.684Z,42.70
2022-12-08T05:18:40.668Z,47.10
2022-12-08T05:19:40.630Z,50.50
2022-12-08T05:20:40.620Z,49.20
2022-12-08T05:21:40.603Z,49.80
2022-12-08T05:22:40.607Z,53.20
2022-12-08T05:23:40.601Z,56.10
2022-12-08T05:24:47.032Z,59.40
2022-12-08T05:25:40.569Z,56.50
2022-12-08T05:26:40.541Z,56.40
2022-12-08T05:27:40.544Z,61.40
2022-12-08T05:28:42.428Z,62.30
2022-12-08T05:29:40.508Z,61.70
2022-12-08T05:30:40.497Z,66.20
2022-12-08T05:31:40.570Z,68.10
2022-12-08T05:32:40.478Z,76.40
2022-12-08T05:33:40.480Z,77.60
2022-12-08T05:34:40.495Z,75.10
2022-12-08T05:35:40.569Z,74.70
2022-12-08T05:36:40.417Z,75.40
2022-12-08T05:37:40.400Z,80.10
2022-12-08T05:38:40.483Z,81.40
2022-12-08T05:39:40.373Z,74.40
2022-12-08T05:40:40.364Z,70.70
2022-12-08T05:41:40.351Z,70.90
2022-12-08T05:42:40.341Z,74.20
2022-12-08T05:43:40.372Z,78.40
2022-12-08T05:44:40.307Z,74.60
2022-12-08T05:45:40.336Z,73.00
2022-12-08T05:46:40.303Z,74.10
2022-12-08T05:47:40.272Z,73.70
2022-12-08T05:48:40.274Z,72.50
2022-12-08T05:49:40.259Z,76.80
2022-12-08T05:50:40.230Z,69.90
2022-12-08T05:51:40.211Z,78.20
2022-12-08T05:52:40.210Z,74.00
2022-12-08T05:53:40.218Z,65.10
2022-12-08T05:54:40.179Z,67.30
2022-12-08T05:55:40.160Z,63.70
2022-12-08T05:56:40.161Z,69.60
2022-12-08T05:57:40.136Z,66.80
2022-12-08T05:58:40.155Z,68.70
2022-12-08T05:59:40.115Z,62.00
2022-12-08T06:00:40.096Z,65.90
2022-12-08T06:01:40.159Z,61.20
2022-12-08T06:02:40.203Z,67.20
2022-12-08T06:03:40.098Z,63.00
2022-12-08T06:04:40.054Z,62.90
2022-12-08T06:05:40.050Z,65.10
2022-12-08T06:06:40.022Z,63.90
2022-12-08T06:07:40.039Z,69.30
2022-12-08T06:08:40.030Z,63.50
2022-12-08T06:09:39.987Z,62.00
2022-12-08T06:10:39.973Z,71.10
2022-12-08T06:11:39.957Z,61.50
2022-12-08T06:12:39.951Z,65.40
2022-12-08T06:13:39.951Z,62.20
2022-12-08T06:14:39.926Z,59.10
2022-12-08T06:15:39.924Z,66.30
2022-12-08T06:16:39.961Z,64.40
2022-12-08T06:17:39.885Z,74.20
2022-12-08T06:18:39.861Z,68.70
2022-12-08T06:19:39.872Z,71.10
2022-12-08T06:20:39.906Z,67.50
2022-12-08T06:21:39.821Z,71.80
2022-12-08T06:22:39.817Z,67.00
2022-12-08T06:23:39.815Z,68.00
2022-12-08T06:24:39.899Z,67.60
2022-12-08T06:25:39.785Z,65.40
2022-12-08T06:26:39.763Z,65.20
2022-12-08T06:27:39.764Z,60.70
2022-12-08T06:28:39.735Z,63.20
2022-12-08T06:29:39.733Z,56.80
2022-12-08T06:30:39.719Z,59.20
2022-12-08T06:31:39.779Z,59.30
2022-12-08T06:32:39.679Z,59.00
2022-12-08T06:33:39.680Z,57.40
2022-12-08T06:34:39.708Z,59.10
2022-12-08T06:38:43.139Z,64.00
2022-12-08T06:39:39.835Z,72.00
2022-12-08T06:40:39.829Z,62.00
2022-12-08T06:41:39.796Z,64.60
2022-12-08T06:42:39.802Z,63.80
2022-12-08T06:43:39.815Z,70.50
2022-12-08T06:44:39.815Z,68.70
2022-12-08T06:45:39.778Z,70.20
2022-12-08T06:46:39.745Z,74.10
2022-12-08T06:47:39.718Z,69.60
2022-12-08T06:48:39.668Z,67.80
2022-12-08T06:49:39.667Z,69.50
2022-12-08T06:50:39.709Z,76.60
2022-12-08T06:51:39.714Z,73.50
2022-12-08T06:52:49.361Z,70.60
2022-12-08T06:53:39.610Z,78.20
2022-12-08T06:54:39.668Z,72.40
2022-12-08T06:55:58.259Z,76.40
2022-12-08T06:56:39.579Z,74.30
2022-12-08T06:57:39.543Z,71.30
2022-12-08T06:58:39.594Z,77.00
2022-12-08T06:59:39.558Z,77.20
2022-12-08T07:00:39.562Z,73.40
2022-12-08T07:01:39.561Z,71.20
2022-12-08T07:02:39.531Z,69.50
2022-12-08T07:03:39.459Z,77.10
2022-12-08T07:04:39.481Z,67.40
2022-12-08T07:05:39.473Z,72.40
2022-12-08T07:06:39.433Z,71.80
2022-12-08T07:07:39.465Z,66.60
2022-12-08T07:08:39.404Z,68.90
2022-12-08T07:09:39.423Z,72.00
2022-12-08T07:10:39.381Z,68.90
2022-12-08T07:11:39.385Z,66.90
2022-12-08T07:12:39.346Z,66.50
2022-12-08T07:13:39.338Z,67.10
2022-12-08T07:14:39.342Z,70.10
2022-12-08T07:15:39.339Z,68.20
2022-12-08T07:16:39.392Z,70.60
2022-12-08T07:17:39.287Z,67.00
2022-12-08T07:18:39.286Z,72.30
2022-12-08T07:19:39.284Z,72.70
2022-12-08T07:20:39.255Z,70.90
2022-12-08T07:21:39.232Z,70.50
2022-12-08T07:22:39.255Z,71.70
2022-12-08T07:23:39.203Z,79.30
2022-12-08T07:24:39.227Z,75.10
2022-12-08T07:25:39.187Z,73.60
2022-12-08T07:26:39.175Z,77.20
2022-12-08T07:27:39.150Z,74.60
2022-12-08T07:28:39.149Z,75.40
2022-12-08T07:29:39.169Z,75.20
2022-12-08T07:30:39.169Z,84.50
2022-12-08T07:31:39.134Z,81.90
2022-12-08T07:32:39.119Z,79.90
2022-12-08T07:33:39.085Z,84.10
2022-12-08T07:34:39.105Z,81.90
2022-12-08T07:38:48.213Z,78.40
2022-12-08T07:39:49.206Z,82.10
2022-12-08T07:40:49.158Z,79.80
2022-12-08T07:41:49.164Z,77.60
2022-12-08T07:42:49.164Z,77.60
2022-12-08T07:43:49.157Z,84.60
2022-12-08T07:44:49.137Z,79.70
2022-12-08T07:45:49.153Z,81.30
2022-12-08T07:46:49.088Z,85.30
2022-12-08T07:47:49.094Z,77.20
2022-12-08T07:48:49.095Z,79.40
2022-12-08T07:49:49.079Z,73.70
2022-12-08T07:50:49.054Z,77.70
2022-12-08T07:51:49.052Z,82.10
2022-12-08T07:52:49.029Z,79.40
2022-12-08T07:53:53.849Z,80.00
2022-12-08T07:54:49.018Z,80.80
2022-12-08T07:55:49.007Z,81.50
2022-12-08T07:56:48.960Z,72.90
2022-12-08T07:57:49.137Z,76.90
2022-12-08T07:58:48.973Z,84.90
2022-12-08T07:59:48.966Z,79.10
2022-12-08T08:00:48.953Z,75.40
2022-12-08T08:02:06.323Z,75.10
2022-12-08T08:02:48.922Z,67.80
2022-12-08T08:03:48.935Z,64.90
2022-12-08T08:04:48.975Z,73.50
2022-12-08T08:05:48.859Z,69.90
2022-12-08T08:06:48.831Z,67.30
2022-12-08T08:07:48.889Z,70.30
2022-12-08T08:08:48.824Z,69.70
2022-12-08T08:09:48.815Z,65.00
2022-12-08T08:10:48.820Z,60.50
2022-12-08T08:12:14.336Z,65.90
2022-12-08T08:12:48.773Z,60.10
2022-12-08T08:13:48.770Z,67.90
2022-12-08T08:14:48.738Z,71.50
2022-12-08T08:15:48.990Z,65.10
2022-12-08T08:16:48.871Z,61.00
2022-12-08T08:17:48.727Z,65.20
2022-12-08T08:18:48.717Z,65.40
2022-12-08T08:19:48.705Z,72.10
2022-12-08T08:20:48.660Z,66.60
2022-12-08T08:21:48.882Z,65.20
2022-12-08T08:22:54.650Z,63.00
2022-12-08T08:23:54.710Z,65.10
2022-12-08T08:24:54.632Z,65.80
2022-12-08T08:25:54.618Z,68.40
2022-12-08T08:26:54.611Z,63.70
2022-12-08T08:27:54.616Z,69.00
2022-12-08T08:28:48.595Z,67.70
2022-12-08T08:29:48.557Z,74.50
2022-12-08T08:30:48.636Z,69.20
2022-12-08T08:31:48.551Z,70.30
2022-12-08T08:32:48.779Z,68.80
2022-12-08T08:33:48.519Z,67.90
2022-12-08T08:34:48.492Z,70.50
